Wray, GA (31798)

2:14 PM EDT on August 29, 2014 (GMT -0400)
Fitzgerald Municipal | Change Station
CLOSE
Current Station
Airport
Location: Fitzgerald Muni, Fitzgerald,,
Elevation: 364 ft
Nearby Weather Stations

Elev 364 ft 31.68 °N, 83.27 °W | Updated 19 minutes ago

Scattered Clouds
Scattered Clouds
93 °F
Feels Like 93 °F
N
6
Wind Variable Wind from SSW

Today
High -- | Low -- °F
--% Chance of Precip.
Yesterday
High -- | Low -- °F
Precip. -- in
7:06 AM 7:59 PM
Waxing Crescent, 15% visible
Pressure 30.07 in
Visibility 10.0 miles
Clouds Scattered Clouds 6000 ft
Heat Index 93 °F
Dew Point 60 °F
Humidity 33%
Rainfall 0.00 in
Snow Depth Not available.
UV 9 out of 12
Pollen 8.20 out of 12
Air Quality Not available.
Flu Activity Not available.
METAR KFZG 291755Z AUTO 21005KT 10SM SCT060 34/16 A3007 RMK AO2 LTG DSNT SW T03390156 10340 20210

More Conditions Fewer Conditions

Pressure 30.07 in
Visibility 10.0 miles
Clouds Scattered Clouds 6000 ft
Heat Index 93 °F
Dew Point 60 °F
Humidity 33%
Rainfall 0.00 in
Snow Depth Not available.
UV 9 out of 12
Pollen 8.20 out of 12
Air Quality Not available.
Flu Activity Not available.
METAR KFZG 291755Z AUTO 21005KT 10SM SCT060 34/16 A3007 RMK AO2 LTG DSNT SW T03390156 10340 20210

More Conditions Fewer Conditions

10-Day Weather Forecast

Almanac

Astronomy

Aug. 29, 2014 Rise Set
Actual Time 7:06 AM EDT 7:59 PM EDT
Civil Twilight 6:41 AM EDT 8:24 PM EDT
Nautical Twilight 6:11 AM EDT 8:54 PM EDT
Astronomical Twilight 5:41 AM EDT 9:24 PM EDT
Moon 10:38 AM EDT 10:14 PM EDT
Length of Visible Light 13h 43m
Length of Day
12h 53m
Tomorrow will be 1m 50s shorter.
Waxing Crescent, 15% of the Moon is Illuminated
Today
Waxing Crescent
Sep 2
First Quarter
Sep 8
Full
Sep 15
Last Quarter
Sep 24
New

Today's Extremes

State Highs State Lows

Community

WunderPhotos

Upload Photos

1,748,309 photos uploaded!

Nearby

Snow Depth

Station Depth Elevation
No new snow has been reported.

Earthquake Activity

City Distance Mag. Time & Date
No recent earthquake activity has been reported nearby.
Minimum magnitude displayed is 2.5.

Coastal Water Temperatures

Place Temperature
No Stations Reporting

Nearby Weather Stations